Tasman Sea — WDB5559 — position and weather

sailwx.info

Track history (hours):
 
Tides and Currents Weather Stations Pressure Air Temp Water Temp Dewpoint Dewpoint Depression Visibility Wind Speed Wind Dir Waves Ship Positions

Tasman Sea

Owner: Kirby Offshore Marine, LLC, Staten Island, NY. More information available from US FCC via Universal Licensing System and Coast Guard Vessel Documentation Center.

Last reported at 2016-May-19 17:20 UTC. Time now 2016-May-28 22:09 UTC.
Position N 42°36' W 069°36'.
Warning: this ship's position is 9 days out of date.

Length 38 m; draft 6 m.

Type: Ship (hazmat cat B). MMSI: 366910960.

Date/timePositionNaut miles runAvg speedWind from/ knotsBaromVisibWave heightAir tempDewpointWater temp
2016-May-19 17:20N 42°36' W 069°36'7 9.2
2016-May-19 16:33N 42°34' W 069°45'9 8.9
2016-May-19 15:33N 42°34' W 069°57'9 9.0
2016-May-19 14:33N 42°31' W 070°09'9 9.0
2016-May-19 13:33N 42°29' W 070°21'9 8.8
2016-May-19 12:33N 42°27' W 070°32'9 9.0
2016-May-19 11:33N 42°26' W 070°44'9 8.7
2016-May-19 10:33N 42°22' W 070°55'6 5.8
2016-May-19 09:33N 42°23' W 071°03'1 0.1
2016-May-18 12:34N 42°24' W 071°01'0 0.0
2016-May-18 11:33N 42°24' W 071°01'0 0.0
2016-May-18 10:33N 42°24' W 071°01'2 2.3
2016-May-18 09:34N 42°22' W 071°03'6 5.8
2016-May-18 08:34N 42°22' W 070°55'7 6.8
2016-May-18 07:33N 42°27' W 070°48'6 5.8
2016-May-18 06:33N 42°31' W 070°42'6 5.8
2016-May-18 05:33N 42°35' W 070°36'6 5.8
2016-May-18 04:33N 42°39' W 070°31'6 6.2
2016-May-18 03:34N 42°45' W 070°28'6 5.9
2016-May-18 02:34N 42°50' W 070°25'7 6.9
2016-May-18 01:33N 42°56' W 070°21'  
2016-May-11 04:23N 40°31' W 073°58'6 7.4
2016-May-11 03:33N 40°36' W 074°02'4 4.5
2016-May-11 02:33N 40°40' W 074°02'0 0.2
2016-May-11 01:33N 40°40' W 074°02'0 0.1
2016-May-11 00:33N 40°40' W 074°02'0 0.0
2016-May-10 23:34N 40°40' W 074°02'6 6.3
2016-May-10 22:33N 40°39' W 074°10'0 0.0
2016-May-10 17:13N 40°39' W 074°10'4 6.3
2016-May-10 16:33N 40°39' W 074°05'2 2.3
2016-May-10 15:31N 40°40' W 074°02'0 0.0
2016-May-10 14:31N 40°40' W 074°02'0 0.2
2016-May-10 13:31N 40°40' W 074°02'0 0.0
2016-May-10 12:31N 40°40' W 074°02'0 0.0
2016-May-10 11:31N 40°40' W 074°02'0 0.0
2016-May-10 10:31N 40°40' W 074°02'0 0.0
2016-May-10 09:31N 40°40' W 074°02'0 0.0
2016-May-10 08:31N 40°40' W 074°02'0 0.0
2016-May-10 07:31N 40°40' W 074°02'0 0.0
2016-May-10 06:31N 40°40' W 074°02'0 0.0
2016-May-10 05:31N 40°40' W 074°02'0 0.2
2016-May-10 04:31N 40°40' W 074°02'0 0.1
2016-May-10 03:31N 40°40' W 074°02'0 0.0
2016-May-10 02:31N 40°40' W 074°02'0 0.0
2016-May-10 01:31N 40°40' W 074°02'0 0.1
2016-May-10 00:31N 40°40' W 074°02'0 0.1
2016-May-09 23:31N 40°40' W 074°02'0 0.1
2016-May-09 22:31N 40°40' W 074°02'0 0.0
2016-May-09 21:31N 40°40' W 074°02'0 0.0
2016-May-09 20:33N 40°40' W 074°02'0 0.0
2016-May-09 19:33N 40°40' W 074°02'0 0.1
2016-May-09 18:33N 40°40' W 074°02'0 0.1
2016-May-09 17:33N 40°40' W 074°02'  
Track history (hours):
 
Tides and Currents Weather Stations Pressure Air Temp Water Temp Dewpoint Dewpoint Depression Visibility Wind Speed Wind Dir Waves Ship Positions

Tasman Sea

Owner: Kirby Offshore Marine, LLC, Staten Island, NY. More information available from US FCC via Universal Licensing System and Coast Guard Vessel Documentation Center.

Last reported at 2016-May-19 17:20 UTC. Time now 2016-May-28 22:09 UTC.
Position N 42°36' W 069°36'.
Warning: this ship's position is 9 days out of date.

Length 38 m; draft 6 m.

Type: Ship (hazmat cat B). MMSI: 366910960.

Date/timePositionNaut miles runAvg speedWind from/ knotsBaromVisibWave heightAir tempDewpointWater temp
2016-May-19 17:20N 42°36' W 069°36'7 9.2
2016-May-19 16:33N 42°34' W 069°45'9 8.9
2016-May-19 15:33N 42°34' W 069°57'9 9.0
2016-May-19 14:33N 42°31' W 070°09'9 9.0
2016-May-19 13:33N 42°29' W 070°21'9 8.8
2016-May-19 12:33N 42°27' W 070°32'9 9.0
2016-May-19 11:33N 42°26' W 070°44'9 8.7
2016-May-19 10:33N 42°22' W 070°55'6 5.8
2016-May-19 09:33N 42°23' W 071°03'1 0.1
2016-May-18 12:34N 42°24' W 071°01'0 0.0
2016-May-18 11:33N 42°24' W 071°01'0 0.0
2016-May-18 10:33N 42°24' W 071°01'2 2.3
2016-May-18 09:34N 42°22' W 071°03'6 5.8
2016-May-18 08:34N 42°22' W 070°55'7 6.8
2016-May-18 07:33N 42°27' W 070°48'6 5.8
2016-May-18 06:33N 42°31' W 070°42'6 5.8
2016-May-18 05:33N 42°35' W 070°36'6 5.8
2016-May-18 04:33N 42°39' W 070°31'6 6.2
2016-May-18 03:34N 42°45' W 070°28'6 5.9
2016-May-18 02:34N 42°50' W 070°25'7 6.9
2016-May-18 01:33N 42°56' W 070°21'  
2016-May-11 04:23N 40°31' W 073°58'6 7.4
2016-May-11 03:33N 40°36' W 074°02'4 4.5
2016-May-11 02:33N 40°40' W 074°02'0 0.2
2016-May-11 01:33N 40°40' W 074°02'0 0.1
2016-May-11 00:33N 40°40' W 074°02'0 0.0
2016-May-10 23:34N 40°40' W 074°02'6 6.3
2016-May-10 22:33N 40°39' W 074°10'0 0.0
2016-May-10 17:13N 40°39' W 074°10'4 6.3
2016-May-10 16:33N 40°39' W 074°05'2 2.3
2016-May-10 15:31N 40°40' W 074°02'0 0.0
2016-May-10 14:31N 40°40' W 074°02'0 0.2
2016-May-10 13:31N 40°40' W 074°02'0 0.0
2016-May-10 12:31N 40°40' W 074°02'0 0.0
2016-May-10 11:31N 40°40' W 074°02'0 0.0
2016-May-10 10:31N 40°40' W 074°02'0 0.0
2016-May-10 09:31N 40°40' W 074°02'0 0.0
2016-May-10 08:31N 40°40' W 074°02'0 0.0
2016-May-10 07:31N 40°40' W 074°02'0 0.0
2016-May-10 06:31N 40°40' W 074°02'0 0.0
2016-May-10 05:31N 40°40' W 074°02'0 0.2
2016-May-10 04:31N 40°40' W 074°02'0 0.1
2016-May-10 03:31N 40°40' W 074°02'0 0.0
2016-May-10 02:31N 40°40' W 074°02'0 0.0
2016-May-10 01:31N 40°40' W 074°02'0 0.1
2016-May-10 00:31N 40°40' W 074°02'0 0.1
2016-May-09 23:31N 40°40' W 074°02'0 0.1
2016-May-09 22:31N 40°40' W 074°02'0 0.0
2016-May-09 21:31N 40°40' W 074°02'0 0.0
2016-May-09 20:33N 40°40' W 074°02'0 0.0
2016-May-09 19:33N 40°40' W 074°02'0 0.1
2016-May-09 18:33N 40°40' W 074°02'0 0.1
2016-May-09 17:33N 40°40' W 074°02'  

Dump ship's entire track history